sensor_id;sensor_type;location;lat;lon;timestamp;P1;durP1;ratioP1;P2;durP2;ratioP2
17947;SDS011;9099;47.958;11.366;2023-01-29T00:01:52;15.53;;;10.03;;
17947;SDS011;9099;47.958;11.366;2023-01-29T00:04:20;16.30;;;10.60;;
17947;SDS011;9099;47.958;11.366;2023-01-29T00:06:46;16.67;;;11.77;;
17947;SDS011;9099;47.958;11.366;2023-01-29T00:09:13;17.40;;;11.63;;
17947;SDS011;9099;47.958;11.366;2023-01-29T00:11:40;15.83;;;10.17;;
17947;SDS011;9099;47.958;11.366;2023-01-29T00:14:07;16.80;;;11.33;;
17947;SDS011;9099;47.958;11.366;2023-01-29T00:16:35;16.83;;;11.17;;
17947;SDS011;9099;47.958;11.366;2023-01-29T00:19:02;17.13;;;11.03;;
17947;SDS011;9099;47.958;11.366;2023-01-29T00:21:29;16.40;;;11.60;;
17947;SDS011;9099;47.958;11.366;2023-01-29T00:23:57;15.03;;;10.40;;
17947;SDS011;9099;47.958;11.366;2023-01-29T00:26:24;16.90;;;11.90;;
17947;SDS011;9099;47.958;11.366;2023-01-29T00:28:51;18.13;;;11.17;;
17947;SDS011;9099;47.958;11.366;2023-01-29T00:31:19;16.90;;;11.30;;
17947;SDS011;9099;47.958;11.366;2023-01-29T00:33:49;16.50;;;10.83;;
17947;SDS011;9099;47.958;11.366;2023-01-29T00:36:17;17.20;;;11.67;;
17947;SDS011;9099;47.958;11.366;2023-01-29T00:38:45;16.70;;;11.03;;
17947;SDS011;9099;47.958;11.366;2023-01-29T00:41:18;16.00;;;11.00;;
17947;SDS011;9099;47.958;11.366;2023-01-29T00:44:03;15.90;;;10.40;;
17947;SDS011;9099;47.958;11.366;2023-01-29T00:46:48;16.30;;;11.60;;
17947;SDS011;9099;47.958;11.366;2023-01-29T00:49:16;18.00;;;10.57;;
17947;SDS011;9099;47.958;11.366;2023-01-29T00:51:43;17.53;;;11.13;;
17947;SDS011;9099;47.958;11.366;2023-01-29T00:54:30;16.37;;;10.67;;
17947;SDS011;9099;47.958;11.366;2023-01-29T00:56:57;14.27;;;9.40;;
17947;SDS011;9099;47.958;11.366;2023-01-29T00:59:24;13.60;;;9.63;;
17947;SDS011;9099;47.958;11.366;2023-01-29T01:01:50;13.70;;;9.27;;
17947;SDS011;9099;47.958;11.366;2023-01-29T01:04:36;13.17;;;9.67;;
17947;SDS011;9099;47.958;11.366;2023-01-29T01:07:03;15.07;;;9.97;;
17947;SDS011;9099;47.958;11.366;2023-01-29T01:09:31;16.23;;;10.97;;
17947;SDS011;9099;47.958;11.366;2023-01-29T01:12:17;15.50;;;10.67;;
17947;SDS011;9099;47.958;11.366;2023-01-29T01:14:44;14.53;;;9.87;;
17947;SDS011;9099;47.958;11.366;2023-01-29T01:17:11;16.67;;;10.70;;
17947;SDS011;9099;47.958;11.366;2023-01-29T01:19:40;17.07;;;11.40;;
17947;SDS011;9099;47.958;11.366;2023-01-29T01:22:07;16.10;;;10.77;;
17947;SDS011;9099;47.958;11.366;2023-01-29T01:24:34;16.63;;;10.63;;
17947;SDS011;9099;47.958;11.366;2023-01-29T01:27:01;15.93;;;10.27;;
17947;SDS011;9099;47.958;11.366;2023-01-29T01:29:28;15.43;;;10.07;;
17947;SDS011;9099;47.958;11.366;2023-01-29T01:31:55;16.00;;;11.27;;
17947;SDS011;9099;47.958;11.366;2023-01-29T01:34:21;16.03;;;10.63;;
17947;SDS011;9099;47.958;11.366;2023-01-29T01:36:52;20.93;;;12.63;;
17947;SDS011;9099;47.958;11.366;2023-01-29T01:39:19;18.03;;;11.23;;
17947;SDS011;9099;47.958;11.366;2023-01-29T01:41:46;17.43;;;11.03;;
17947;SDS011;9099;47.958;11.366;2023-01-29T01:47:19;16.43;;;10.00;;
17947;SDS011;9099;47.958;11.366;2023-01-29T01:49:51;16.87;;;10.30;;
17947;SDS011;9099;47.958;11.366;2023-01-29T01:52:21;17.97;;;11.07;;
17947;SDS011;9099;47.958;11.366;2023-01-29T01:54:48;15.43;;;10.20;;
17947;SDS011;9099;47.958;11.366;2023-01-29T01:57:16;17.00;;;10.57;;
17947;SDS011;9099;47.958;11.366;2023-01-29T01:59:50;13.53;;;9.73;;
17947;SDS011;9099;47.958;11.366;2023-01-29T02:02:21;17.20;;;10.83;;
17947;SDS011;9099;47.958;11.366;2023-01-29T02:05:06;15.17;;;9.77;;
17947;SDS011;9099;47.958;11.366;2023-01-29T02:07:53;17.47;;;10.63;;
17947;SDS011;9099;47.958;11.366;2023-01-29T02:10:40;15.30;;;10.13;;
17947;SDS011;9099;47.958;11.366;2023-01-29T02:13:09;14.97;;;10.00;;
17947;SDS011;9099;47.958;11.366;2023-01-29T02:15:36;15.20;;;9.80;;
17947;SDS011;9099;47.958;11.366;2023-01-29T02:18:06;16.83;;;10.33;;
17947;SDS011;9099;47.958;11.366;2023-01-29T02:20:33;15.97;;;10.47;;
17947;SDS011;9099;47.958;11.366;2023-01-29T02:23:09;14.83;;;9.73;;
17947;SDS011;9099;47.958;11.366;2023-01-29T02:26:06;13.20;;;9.00;;
17947;SDS011;9099;47.958;11.366;2023-01-29T02:28:43;12.10;;;9.53;;
17947;SDS011;9099;47.958;11.366;2023-01-29T02:31:19;16.73;;;11.50;;
17947;SDS011;9099;47.958;11.366;2023-01-29T02:33:54;17.63;;;11.43;;
17947;SDS011;9099;47.958;11.366;2023-01-29T02:36:28;15.27;;;10.20;;
17947;SDS011;9099;47.958;11.366;2023-01-29T02:39:03;16.73;;;10.63;;
17947;SDS011;9099;47.958;11.366;2023-01-29T02:41:37;18.57;;;11.80;;
17947;SDS011;9099;47.958;11.366;2023-01-29T02:44:11;18.33;;;12.20;;
17947;SDS011;9099;47.958;11.366;2023-01-29T02:46:44;19.67;;;12.57;;
17947;SDS011;9099;47.958;11.366;2023-01-29T02:49:17;17.50;;;11.53;;
17947;SDS011;9099;47.958;11.366;2023-01-29T02:51:50;17.20;;;11.00;;
17947;SDS011;9099;47.958;11.366;2023-01-29T02:54:24;16.10;;;10.90;;
17947;SDS011;9099;47.958;11.366;2023-01-29T02:56:56;16.47;;;11.30;;
17947;SDS011;9099;47.958;11.366;2023-01-29T02:59:29;16.90;;;11.27;;
17947;SDS011;9099;47.958;11.366;2023-01-29T03:02:02;16.53;;;10.67;;
17947;SDS011;9099;47.958;11.366;2023-01-29T03:04:34;16.40;;;10.53;;
17947;SDS011;9099;47.958;11.366;2023-01-29T03:07:08;17.27;;;11.30;;
17947;SDS011;9099;47.958;11.366;2023-01-29T03:10:00;17.97;;;11.23;;
17947;SDS011;9099;47.958;11.366;2023-01-29T03:12:28;14.43;;;10.57;;
17947;SDS011;9099;47.958;11.366;2023-01-29T03:15:02;16.33;;;10.90;;
17947;SDS011;9099;47.958;11.366;2023-01-29T03:17:39;16.17;;;11.17;;
17947;SDS011;9099;47.958;11.366;2023-01-29T03:20:11;18.27;;;11.57;;
17947;SDS011;9099;47.958;11.366;2023-01-29T03:22:44;21.53;;;12.87;;
17947;SDS011;9099;47.958;11.366;2023-01-29T03:25:15;20.40;;;12.50;;
17947;SDS011;9099;47.958;11.366;2023-01-29T03:28:02;18.37;;;12.30;;
17947;SDS011;9099;47.958;11.366;2023-01-29T03:30:49;21.73;;;12.87;;
17947;SDS011;9099;47.958;11.366;2023-01-29T03:33:38;16.63;;;11.03;;
17947;SDS011;9099;47.958;11.366;2023-01-29T03:36:09;20.47;;;12.67;;
17947;SDS011;9099;47.958;11.366;2023-01-29T03:38:42;16.97;;;12.10;;
17947;SDS011;9099;47.958;11.366;2023-01-29T03:41:09;19.60;;;12.50;;
17947;SDS011;9099;47.958;11.366;2023-01-29T03:43:47;19.57;;;11.97;;
17947;SDS011;9099;47.958;11.366;2023-01-29T03:46:21;22.63;;;14.50;;
17947;SDS011;9099;47.958;11.366;2023-01-29T03:48:54;21.30;;;13.33;;
17947;SDS011;9099;47.958;11.366;2023-01-29T03:51:26;21.10;;;14.23;;
17947;SDS011;9099;47.958;11.366;2023-01-29T03:54:00;19.27;;;12.77;;
17947;SDS011;9099;47.958;11.366;2023-01-29T03:56:36;20.77;;;13.23;;
17947;SDS011;9099;47.958;11.366;2023-01-29T03:59:15;19.23;;;13.10;;
17947;SDS011;9099;47.958;11.366;2023-01-29T04:01:50;21.90;;;13.80;;
17947;SDS011;9099;47.958;11.366;2023-01-29T04:04:21;21.33;;;12.87;;
17947;SDS011;9099;47.958;11.366;2023-01-29T04:06:51;20.97;;;13.17;;
17947;SDS011;9099;47.958;11.366;2023-01-29T04:09:22;19.50;;;12.93;;
17947;SDS011;9099;47.958;11.366;2023-01-29T04:11:58;19.97;;;12.60;;
17947;SDS011;9099;47.958;11.366;2023-01-29T04:14:31;20.00;;;12.10;;
17947;SDS011;9099;47.958;11.366;2023-01-29T04:17:00;22.20;;;13.40;;
17947;SDS011;9099;47.958;11.366;2023-01-29T04:19:33;21.93;;;13.67;;
17947;SDS011;9099;47.958;11.366;2023-01-29T04:22:01;18.83;;;11.90;;
17947;SDS011;9099;47.958;11.366;2023-01-29T04:24:31;18.63;;;13.83;;
17947;SDS011;9099;47.958;11.366;2023-01-29T04:27:02;19.77;;;12.97;;
17947;SDS011;9099;47.958;11.366;2023-01-29T04:29:40;20.13;;;13.07;;
17947;SDS011;9099;47.958;11.366;2023-01-29T04:32:17;19.47;;;12.63;;
17947;SDS011;9099;47.958;11.366;2023-01-29T04:34:50;20.67;;;12.53;;
17947;SDS011;9099;47.958;11.366;2023-01-29T04:37:27;19.93;;;13.37;;
17947;SDS011;9099;47.958;11.366;2023-01-29T04:40:02;21.00;;;13.40;;
17947;SDS011;9099;47.958;11.366;2023-01-29T04:42:37;21.63;;;12.57;;
17947;SDS011;9099;47.958;11.366;2023-01-29T04:45:12;18.73;;;13.07;;
17947;SDS011;9099;47.958;11.366;2023-01-29T04:47:48;19.27;;;13.37;;
17947;SDS011;9099;47.958;11.366;2023-01-29T04:50:24;19.80;;;13.60;;
17947;SDS011;9099;47.958;11.366;2023-01-29T04:52:54;18.67;;;12.43;;
17947;SDS011;9099;47.958;11.366;2023-01-29T04:55:28;18.47;;;12.10;;
17947;SDS011;9099;47.958;11.366;2023-01-29T04:58:04;20.53;;;13.10;;
17947;SDS011;9099;47.958;11.366;2023-01-29T05:00:37;18.10;;;11.83;;
17947;SDS011;9099;47.958;11.366;2023-01-29T05:03:08;18.93;;;12.93;;
17947;SDS011;9099;47.958;11.366;2023-01-29T05:05:38;19.03;;;12.23;;
17947;SDS011;9099;47.958;11.366;2023-01-29T05:08:08;20.87;;;13.33;;
17947;SDS011;9099;47.958;11.366;2023-01-29T05:10:38;21.20;;;13.17;;
17947;SDS011;9099;47.958;11.366;2023-01-29T05:13:07;18.57;;;11.80;;
17947;SDS011;9099;47.958;11.366;2023-01-29T05:15:39;18.10;;;12.03;;
17947;SDS011;9099;47.958;11.366;2023-01-29T05:18:10;17.37;;;12.00;;
17947;SDS011;9099;47.958;11.366;2023-01-29T05:20:38;19.20;;;12.37;;
17947;SDS011;9099;47.958;11.366;2023-01-29T05:23:08;17.70;;;12.10;;
17947;SDS011;9099;47.958;11.366;2023-01-29T05:25:36;21.20;;;13.00;;
17947;SDS011;9099;47.958;11.366;2023-01-29T05:28:03;19.97;;;12.33;;
17947;SDS011;9099;47.958;11.366;2023-01-29T05:30:29;18.60;;;12.37;;
17947;SDS011;9099;47.958;11.366;2023-01-29T05:32:57;20.17;;;12.50;;
17947;SDS011;9099;47.958;11.366;2023-01-29T05:35:25;20.63;;;12.80;;
17947;SDS011;9099;47.958;11.366;2023-01-29T05:37:53;18.87;;;12.30;;
17947;SDS011;9099;47.958;11.366;2023-01-29T05:40:20;22.23;;;13.33;;
17947;SDS011;9099;47.958;11.366;2023-01-29T05:42:47;20.10;;;12.87;;
17947;SDS011;9099;47.958;11.366;2023-01-29T05:45:15;18.13;;;11.50;;
17947;SDS011;9099;47.958;11.366;2023-01-29T05:47:42;20.47;;;13.33;;
17947;SDS011;9099;47.958;11.366;2023-01-29T05:50:10;17.27;;;12.17;;
17947;SDS011;9099;47.958;11.366;2023-01-29T05:52:38;19.20;;;12.23;;
17947;SDS011;9099;47.958;11.366;2023-01-29T05:55:06;18.13;;;11.23;;
17947;SDS011;9099;47.958;11.366;2023-01-29T05:57:34;16.90;;;10.00;;
17947;SDS011;9099;47.958;11.366;2023-01-29T06:00:01;16.67;;;10.80;;
17947;SDS011;9099;47.958;11.366;2023-01-29T06:02:29;15.40;;;9.87;;
17947;SDS011;9099;47.958;11.366;2023-01-29T06:04:56;16.67;;;10.50;;
17947;SDS011;9099;47.958;11.366;2023-01-29T06:07:23;15.90;;;10.73;;
17947;SDS011;9099;47.958;11.366;2023-01-29T06:09:51;15.00;;;9.87;;
17947;SDS011;9099;47.958;11.366;2023-01-29T06:12:18;13.27;;;9.60;;
17947;SDS011;9099;47.958;11.366;2023-01-29T06:14:45;13.33;;;9.90;;
17947;SDS011;9099;47.958;11.366;2023-01-29T06:17:12;16.67;;;11.37;;
17947;SDS011;9099;47.958;11.366;2023-01-29T06:19:38;14.80;;;9.80;;
17947;SDS011;9099;47.958;11.366;2023-01-29T06:22:05;15.60;;;9.33;;
17947;SDS011;9099;47.958;11.366;2023-01-29T06:24:32;15.00;;;10.93;;
17947;SDS011;9099;47.958;11.366;2023-01-29T06:27:00;13.00;;;9.87;;
17947;SDS011;9099;47.958;11.366;2023-01-29T06:29:27;14.70;;;10.07;;
17947;SDS011;9099;47.958;11.366;2023-01-29T06:31:54;10.67;;;7.60;;
17947;SDS011;9099;47.958;11.366;2023-01-29T06:34:21;12.03;;;8.23;;
17947;SDS011;9099;47.958;11.366;2023-01-29T06:36:47;13.20;;;8.80;;
17947;SDS011;9099;47.958;11.366;2023-01-29T06:39:14;14.63;;;9.43;;
17947;SDS011;9099;47.958;11.366;2023-01-29T06:41:41;13.37;;;9.67;;
17947;SDS011;9099;47.958;11.366;2023-01-29T06:44:10;11.93;;;9.03;;
17947;SDS011;9099;47.958;11.366;2023-01-29T06:46:37;12.63;;;8.67;;
17947;SDS011;9099;47.958;11.366;2023-01-29T06:49:04;12.23;;;8.80;;
17947;SDS011;9099;47.958;11.366;2023-01-29T06:51:31;8.53;;;6.70;;
17947;SDS011;9099;47.958;11.366;2023-01-29T06:53:58;6.60;;;5.40;;
17947;SDS011;9099;47.958;11.366;2023-01-29T06:56:25;5.87;;;4.97;;
17947;SDS011;9099;47.958;11.366;2023-01-29T06:58:51;6.87;;;5.33;;
17947;SDS011;9099;47.958;11.366;2023-01-29T07:01:20;6.73;;;5.20;;
17947;SDS011;9099;47.958;11.366;2023-01-29T07:03:48;7.23;;;5.50;;
17947;SDS011;9099;47.958;11.366;2023-01-29T07:06:15;6.63;;;4.97;;
17947;SDS011;9099;47.958;11.366;2023-01-29T07:08:42;5.93;;;4.97;;
17947;SDS011;9099;47.958;11.366;2023-01-29T07:11:09;5.30;;;4.37;;
17947;SDS011;9099;47.958;11.366;2023-01-29T07:13:36;7.30;;;5.97;;
17947;SDS011;9099;47.958;11.366;2023-01-29T07:16:04;8.13;;;6.17;;
17947;SDS011;9099;47.958;11.366;2023-01-29T07:21:02;5.80;;;4.50;;
17947;SDS011;9099;47.958;11.366;2023-01-29T07:23:31;6.87;;;5.30;;
17947;SDS011;9099;47.958;11.366;2023-01-29T07:25:59;5.30;;;4.00;;
17947;SDS011;9099;47.958;11.366;2023-01-29T07:28:27;3.87;;;3.40;;
17947;SDS011;9099;47.958;11.366;2023-01-29T07:30:55;3.30;;;3.00;;
17947;SDS011;9099;47.958;11.366;2023-01-29T07:33:22;3.90;;;3.50;;
17947;SDS011;9099;47.958;11.366;2023-01-29T07:35:51;3.13;;;2.83;;
17947;SDS011;9099;47.958;11.366;2023-01-29T07:38:18;2.87;;;2.67;;
17947;SDS011;9099;47.958;11.366;2023-01-29T07:40:45;3.90;;;3.50;;
17947;SDS011;9099;47.958;11.366;2023-01-29T07:43:13;4.53;;;3.80;;
17947;SDS011;9099;47.958;11.366;2023-01-29T07:45:40;3.37;;;3.07;;
17947;SDS011;9099;47.958;11.366;2023-01-29T07:48:08;3.70;;;3.40;;
17947;SDS011;9099;47.958;11.366;2023-01-29T07:50:37;4.37;;;3.37;;
17947;SDS011;9099;47.958;11.366;2023-01-29T07:53:06;4.03;;;3.63;;
17947;SDS011;9099;47.958;11.366;2023-01-29T07:55:34;5.03;;;4.37;;
17947;SDS011;9099;47.958;11.366;2023-01-29T07:58:01;5.10;;;4.37;;
17947;SDS011;9099;47.958;11.366;2023-01-29T08:00:29;7.10;;;5.80;;
17947;SDS011;9099;47.958;11.366;2023-01-29T08:03:00;9.37;;;6.60;;
17947;SDS011;9099;47.958;11.366;2023-01-29T08:05:28;7.63;;;6.00;;
17947;SDS011;9099;47.958;11.366;2023-01-29T08:07:55;7.37;;;5.83;;
17947;SDS011;9099;47.958;11.366;2023-01-29T08:10:24;6.67;;;5.27;;
17947;SDS011;9099;47.958;11.366;2023-01-29T08:12:55;5.17;;;4.60;;
17947;SDS011;9099;47.958;11.366;2023-01-29T08:15:22;5.43;;;4.90;;
17947;SDS011;9099;47.958;11.366;2023-01-29T08:17:49;5.05;;;4.55;;
17947;SDS011;9099;47.958;11.366;2023-01-29T08:20:16;5.07;;;4.57;;
17947;SDS011;9099;47.958;11.366;2023-01-29T08:22:44;4.35;;;3.85;;
17947;SDS011;9099;47.958;11.366;2023-01-29T08:25:11;4.72;;;4.32;;
17947;SDS011;9099;47.958;11.366;2023-01-29T08:27:40;5.63;;;5.13;;
17947;SDS011;9099;47.958;11.366;2023-01-29T08:30:08;4.95;;;4.55;;
17947;SDS011;9099;47.958;11.366;2023-01-29T08:32:36;4.78;;;4.38;;
17947;SDS011;9099;47.958;11.366;2023-01-29T08:35:03;4.93;;;4.53;;
17947;SDS011;9099;47.958;11.366;2023-01-29T08:37:30;4.95;;;4.55;;
17947;SDS011;9099;47.958;11.366;2023-01-29T08:39:57;5.13;;;4.72;;
17947;SDS011;9099;47.958;11.366;2023-01-29T08:42:23;4.88;;;4.47;;
17947;SDS011;9099;47.958;11.366;2023-01-29T08:44:52;5.25;;;4.85;;
17947;SDS011;9099;47.958;11.366;2023-01-29T08:47:19;5.93;;;5.43;;
17947;SDS011;9099;47.958;11.366;2023-01-29T08:49:45;6.78;;;6.20;;
17947;SDS011;9099;47.958;11.366;2023-01-29T08:52:12;6.20;;;5.80;;
17947;SDS011;9099;47.958;11.366;2023-01-29T08:54:39;5.93;;;5.53;;
17947;SDS011;9099;47.958;11.366;2023-01-29T08:57:06;5.32;;;4.93;;
17947;SDS011;9099;47.958;11.366;2023-01-29T08:59:33;6.00;;;5.50;;
17947;SDS011;9099;47.958;11.366;2023-01-29T09:02:01;5.40;;;5.00;;
17947;SDS011;9099;47.958;11.366;2023-01-29T09:04:27;6.22;;;5.72;;
17947;SDS011;9099;47.958;11.366;2023-01-29T09:06:54;5.43;;;4.93;;
17947;SDS011;9099;47.958;11.366;2023-01-29T09:09:21;6.30;;;5.80;;
17947;SDS011;9099;47.958;11.366;2023-01-29T09:11:48;5.47;;;5.07;;
17947;SDS011;9099;47.958;11.366;2023-01-29T09:14:15;5.15;;;4.85;;
17947;SDS011;9099;47.958;11.366;2023-01-29T09:16:42;6.35;;;5.85;;
17947;SDS011;9099;47.958;11.366;2023-01-29T09:19:10;5.90;;;5.50;;
17947;SDS011;9099;47.958;11.366;2023-01-29T09:21:37;6.30;;;5.80;;
17947;SDS011;9099;47.958;11.366;2023-01-29T09:24:04;5.30;;;4.90;;
17947;SDS011;9099;47.958;11.366;2023-01-29T09:26:31;5.38;;;4.97;;
17947;SDS011;9099;47.958;11.366;2023-01-29T09:28:58;6.00;;;5.50;;
17947;SDS011;9099;47.958;11.366;2023-01-29T09:31:25;5.25;;;4.85;;
17947;SDS011;9099;47.958;11.366;2023-01-29T09:33:51;4.93;;;4.55;;
17947;SDS011;9099;47.958;11.366;2023-01-29T09:36:20;5.68;;;5.18;;
17947;SDS011;9099;47.958;11.366;2023-01-29T09:38:46;5.50;;;5.10;;
17947;SDS011;9099;47.958;11.366;2023-01-29T09:41:21;5.47;;;4.97;;
17947;SDS011;9099;47.958;11.366;2023-01-29T09:43:56;5.65;;;5.15;;
17947;SDS011;9099;47.958;11.366;2023-01-29T09:46:28;5.47;;;4.97;;
17947;SDS011;9099;47.958;11.366;2023-01-29T09:49:00;5.30;;;4.90;;
17947;SDS011;9099;47.958;11.366;2023-01-29T09:51:35;6.65;;;5.82;;
17947;SDS011;9099;47.958;11.366;2023-01-29T09:54:10;5.55;;;5.05;;
17947;SDS011;9099;47.958;11.366;2023-01-29T09:56:41;8.02;;;7.07;;
17947;SDS011;9099;47.958;11.366;2023-01-29T09:59:11;5.93;;;5.32;;
17947;SDS011;9099;47.958;11.366;2023-01-29T10:01:40;5.10;;;4.70;;
17947;SDS011;9099;47.958;11.366;2023-01-29T10:04:23;5.07;;;4.68;;
17947;SDS011;9099;47.958;11.366;2023-01-29T10:07:16;5.57;;;4.80;;
17947;SDS011;9099;47.958;11.366;2023-01-29T10:10:02;6.60;;;5.30;;
17947;SDS011;9099;47.958;11.366;2023-01-29T10:12:49;5.35;;;4.85;;
17947;SDS011;9099;47.958;11.366;2023-01-29T10:15:26;5.30;;;4.80;;
17947;SDS011;9099;47.958;11.366;2023-01-29T10:18:12;5.38;;;4.88;;
17947;SDS011;9099;47.958;11.366;2023-01-29T10:21:03;4.88;;;4.43;;
17947;SDS011;9099;47.958;11.366;2023-01-29T10:23:44;4.78;;;4.38;;
17947;SDS011;9099;47.958;11.366;2023-01-29T10:26:14;4.88;;;4.38;;
17947;SDS011;9099;47.958;11.366;2023-01-29T10:28:43;5.13;;;4.63;;
17947;SDS011;9099;47.958;11.366;2023-01-29T10:31:12;6.20;;;5.30;;
17947;SDS011;9099;47.958;11.366;2023-01-29T10:33:45;5.43;;;4.80;;
17947;SDS011;9099;47.958;11.366;2023-01-29T10:36:17;5.37;;;4.60;;
17947;SDS011;9099;47.958;11.366;2023-01-29T10:38:49;5.50;;;4.53;;
17947;SDS011;9099;47.958;11.366;2023-01-29T10:41:18;4.60;;;4.20;;
17947;SDS011;9099;47.958;11.366;2023-01-29T10:43:54;5.03;;;4.50;;
17947;SDS011;9099;47.958;11.366;2023-01-29T10:46:33;6.23;;;4.60;;
17947;SDS011;9099;47.958;11.366;2023-01-29T10:49:14;7.70;;;5.13;;
17947;SDS011;9099;47.958;11.366;2023-01-29T10:52:02;12.03;;;4.90;;
17947;SDS011;9099;47.958;11.366;2023-01-29T10:54:42;4.70;;;4.30;;
17947;SDS011;9099;47.958;11.366;2023-01-29T10:57:21;5.33;;;4.60;;
17947;SDS011;9099;47.958;11.366;2023-01-29T11:00:00;8.47;;;4.70;;
17947;SDS011;9099;47.958;11.366;2023-01-29T11:02:40;4.47;;;4.07;;
17947;SDS011;9099;47.958;11.366;2023-01-29T11:05:11;4.47;;;4.07;;
17947;SDS011;9099;47.958;11.366;2023-01-29T11:07:48;5.20;;;4.70;;
17947;SDS011;9099;47.958;11.366;2023-01-29T11:10:25;4.73;;;4.07;;
17947;SDS011;9099;47.958;11.366;2023-01-29T11:12:53;6.20;;;4.10;;
17947;SDS011;9099;47.958;11.366;2023-01-29T11:15:21;6.70;;;4.00;;
17947;SDS011;9099;47.958;11.366;2023-01-29T11:17:59;4.37;;;3.53;;
17947;SDS011;9099;47.958;11.366;2023-01-29T11:20:28;3.90;;;3.60;;
17947;SDS011;9099;47.958;11.366;2023-01-29T11:22:55;4.03;;;3.63;;
17947;SDS011;9099;47.958;11.366;2023-01-29T11:25:24;4.10;;;3.70;;
17947;SDS011;9099;47.958;11.366;2023-01-29T11:27:53;4.50;;;4.10;;
17947;SDS011;9099;47.958;11.366;2023-01-29T11:30:22;4.43;;;4.03;;
17947;SDS011;9099;47.958;11.366;2023-01-29T11:32:55;4.07;;;3.40;;
17947;SDS011;9099;47.958;11.366;2023-01-29T11:35:26;4.17;;;3.77;;
17947;SDS011;9099;47.958;11.366;2023-01-29T11:37:55;3.83;;;3.53;;
17947;SDS011;9099;47.958;11.366;2023-01-29T11:40:43;3.83;;;3.53;;
17947;SDS011;9099;47.958;11.366;2023-01-29T11:43:17;3.90;;;3.60;;
17947;SDS011;9099;47.958;11.366;2023-01-29T11:45:46;4.83;;;4.03;;
17947;SDS011;9099;47.958;11.366;2023-01-29T11:48:16;5.00;;;4.30;;
17947;SDS011;9099;47.958;11.366;2023-01-29T11:50:49;4.17;;;3.77;;
17947;SDS011;9099;47.958;11.366;2023-01-29T11:53:21;6.73;;;4.10;;
17947;SDS011;9099;47.958;11.366;2023-01-29T11:55:53;4.87;;;3.77;;
17947;SDS011;9099;47.958;11.366;2023-01-29T11:58:23;4.00;;;3.60;;
17947;SDS011;9099;47.958;11.366;2023-01-29T12:00:52;4.50;;;3.53;;
17947;SDS011;9099;47.958;11.366;2023-01-29T12:03:20;5.47;;;4.07;;
17947;SDS011;9099;47.958;11.366;2023-01-29T12:05:53;4.43;;;3.83;;
17947;SDS011;9099;47.958;11.366;2023-01-29T12:08:21;4.07;;;3.67;;
17947;SDS011;9099;47.958;11.366;2023-01-29T12:10:49;3.83;;;3.53;;
17947;SDS011;9099;47.958;11.366;2023-01-29T12:13:20;4.20;;;3.80;;
17947;SDS011;9099;47.958;11.366;2023-01-29T12:16:04;5.60;;;4.00;;
17947;SDS011;9099;47.958;11.366;2023-01-29T12:18:37;4.77;;;3.93;;
17947;SDS011;9099;47.958;11.366;2023-01-29T12:21:09;5.40;;;4.90;;
17947;SDS011;9099;47.958;11.366;2023-01-29T12:23:44;4.28;;;3.80;;
17947;SDS011;9099;47.958;11.366;2023-01-29T12:26:20;5.77;;;4.20;;
17947;SDS011;9099;47.958;11.366;2023-01-29T12:28:56;5.83;;;4.60;;
17947;SDS011;9099;47.958;11.366;2023-01-29T12:31:34;5.60;;;4.80;;
17947;SDS011;9099;47.958;11.366;2023-01-29T12:34:09;5.05;;;4.55;;
17947;SDS011;9099;47.958;11.366;2023-01-29T12:36:41;5.25;;;4.55;;
17947;SDS011;9099;47.958;11.366;2023-01-29T12:39:17;5.18;;;4.78;;
17947;SDS011;9099;47.958;11.366;2023-01-29T12:41:46;5.03;;;4.57;;
17947;SDS011;9099;47.958;11.366;2023-01-29T12:44:20;5.28;;;4.70;;
17947;SDS011;9099;47.958;11.366;2023-01-29T12:46:55;5.10;;;4.05;;
17947;SDS011;9099;47.958;11.366;2023-01-29T12:49:26;5.18;;;4.68;;
17947;SDS011;9099;47.958;11.366;2023-01-29T12:51:56;8.17;;;5.07;;
17947;SDS011;9099;47.958;11.366;2023-01-29T12:54:30;6.22;;;5.18;;
17947;SDS011;9099;47.958;11.366;2023-01-29T12:57:02;5.50;;;4.85;;
17947;SDS011;9099;47.958;11.366;2023-01-29T12:59:37;5.00;;;4.50;;
17947;SDS011;9099;47.958;11.366;2023-01-29T13:02:11;5.28;;;4.82;;
17947;SDS011;9099;47.958;11.366;2023-01-29T13:04:47;5.43;;;4.78;;
17947;SDS011;9099;47.958;11.366;2023-01-29T13:07:22;5.82;;;5.20;;
17947;SDS011;9099;47.958;11.366;2023-01-29T13:09:53;6.22;;;5.47;;
17947;SDS011;9099;47.958;11.366;2023-01-29T13:12:27;5.53;;;5.03;;
17947;SDS011;9099;47.958;11.366;2023-01-29T13:14:56;5.60;;;5.10;;
17947;SDS011;9099;47.958;11.366;2023-01-29T13:17:27;7.78;;;5.32;;
17947;SDS011;9099;47.958;11.366;2023-01-29T13:20:00;5.70;;;4.70;;
17947;SDS011;9099;47.958;11.366;2023-01-29T13:22:34;5.50;;;5.00;;
17947;SDS011;9099;47.958;11.366;2023-01-29T13:25:03;5.88;;;5.28;;
17947;SDS011;9099;47.958;11.366;2023-01-29T13:27:35;6.27;;;4.97;;
17947;SDS011;9099;47.958;11.366;2023-01-29T13:30:04;5.50;;;4.97;;
17947;SDS011;9099;47.958;11.366;2023-01-29T13:32:32;5.80;;;4.97;;
17947;SDS011;9099;47.958;11.366;2023-01-29T13:35:01;5.88;;;5.22;;
17947;SDS011;9099;47.958;11.366;2023-01-29T13:37:32;5.20;;;4.70;;
17947;SDS011;9099;47.958;11.366;2023-01-29T13:40:00;5.00;;;4.50;;
17947;SDS011;9099;47.958;11.366;2023-01-29T13:42:34;5.47;;;4.97;;
17947;SDS011;9099;47.958;11.366;2023-01-29T13:45:16;5.63;;;5.10;;
17947;SDS011;9099;47.958;11.366;2023-01-29T13:47:45;5.88;;;5.30;;
17947;SDS011;9099;47.958;11.366;2023-01-29T13:50:17;5.38;;;4.88;;
17947;SDS011;9099;47.958;11.366;2023-01-29T13:52:51;5.95;;;4.85;;
17947;SDS011;9099;47.958;11.366;2023-01-29T13:55:21;5.60;;;4.97;;
17947;SDS011;9099;47.958;11.366;2023-01-29T13:57:55;5.28;;;4.78;;
17947;SDS011;9099;47.958;11.366;2023-01-29T14:12:30;5.73;;;5.20;;
17947;SDS011;9099;47.958;11.366;2023-01-29T14:15:14;5.70;;;5.07;;
17947;SDS011;9099;47.958;11.366;2023-01-29T14:18:01;5.03;;;4.53;;
17947;SDS011;9099;47.958;11.366;2023-01-29T14:20:31;5.50;;;5.00;;
17947;SDS011;9099;47.958;11.366;2023-01-29T14:23:02;5.30;;;4.80;;
17947;SDS011;9099;47.958;11.366;2023-01-29T14:25:31;5.47;;;4.95;;
17947;SDS011;9099;47.958;11.366;2023-01-29T14:28:01;5.27;;;4.77;;
17947;SDS011;9099;47.958;11.366;2023-01-29T14:30:30;6.50;;;5.10;;
17947;SDS011;9099;47.958;11.366;2023-01-29T14:33:01;6.32;;;4.70;;
17947;SDS011;9099;47.958;11.366;2023-01-29T14:35:30;6.97;;;5.65;;
17947;SDS011;9099;47.958;11.366;2023-01-29T14:37:59;8.70;;;6.68;;
17947;SDS011;9099;47.958;11.366;2023-01-29T14:40:29;6.20;;;5.63;;
17947;SDS011;9099;47.958;11.366;2023-01-29T14:43:00;6.43;;;5.20;;
17947;SDS011;9099;47.958;11.366;2023-01-29T14:45:29;5.53;;;4.93;;
17947;SDS011;9099;47.958;11.366;2023-01-29T14:47:59;5.80;;;5.20;;
17947;SDS011;9099;47.958;11.366;2023-01-29T14:50:45;6.33;;;4.83;;
17947;SDS011;9099;47.958;11.366;2023-01-29T14:53:20;5.65;;;4.70;;
17947;SDS011;9099;47.958;11.366;2023-01-29T14:55:54;5.80;;;5.20;;
17947;SDS011;9099;47.958;11.366;2023-01-29T14:58:24;5.37;;;4.83;;
17947;SDS011;9099;47.958;11.366;2023-01-29T15:00:58;5.60;;;5.03;;
17947;SDS011;9099;47.958;11.366;2023-01-29T15:03:28;5.33;;;4.83;;
17947;SDS011;9099;47.958;11.366;2023-01-29T15:06:03;6.70;;;5.50;;
17947;SDS011;9099;47.958;11.366;2023-01-29T15:08:33;5.82;;;5.30;;
17947;SDS011;9099;47.958;11.366;2023-01-29T15:11:06;7.73;;;5.20;;
17947;SDS011;9099;47.958;11.366;2023-01-29T15:13:52;6.10;;;5.50;;
17947;SDS011;9099;47.958;11.366;2023-01-29T15:16:23;5.97;;;5.37;;
17947;SDS011;9099;47.958;11.366;2023-01-29T15:18:55;6.80;;;5.33;;